createdAt,value
2022-11-29T00:01:20.474Z,96234.41
2022-11-29T00:03:47.268Z,96189.47
2022-11-29T00:06:18.031Z,96142.19
2022-11-29T00:08:45.447Z,96129.28
2022-11-29T00:11:38.344Z,96131.09
2022-11-29T00:14:10.004Z,96138.84
2022-11-29T00:16:37.394Z,96155.44
2022-11-29T00:19:04.129Z,96157.25
2022-11-29T00:21:30.828Z,96217.09
2022-11-29T00:23:57.643Z,96235.19
2022-11-29T00:26:24.404Z,96175.03
2022-11-29T00:28:51.488Z,96165.16
2022-11-29T00:31:20.948Z,96181.72
2022-11-29T00:33:48.134Z,96175.47
2022-11-29T00:36:15.313Z,96145.25
2022-11-29T00:38:42.516Z,96165.16
2022-11-29T00:41:10.066Z,96169.84
2022-11-29T00:43:36.856Z,96166.97
2022-11-29T00:46:04.802Z,96193.56
2022-11-29T00:48:32.273Z,96165.16
2022-11-29T00:50:58.962Z,96184.31
2022-11-29T00:53:25.579Z,96158.00
2022-11-29T00:55:53.102Z,96171.69
2022-11-29T00:58:20.931Z,96144.03
2022-11-29T01:00:47.871Z,96140.22
2022-11-29T01:03:15.427Z,96142.38
2022-11-29T01:05:43.099Z,96158.63
2022-11-29T01:08:11.148Z,96152.69
2022-11-29T01:10:38.118Z,96191.44
2022-11-29T01:13:05.431Z,96187.78
2022-11-29T01:15:32.287Z,96216.06
2022-11-29T01:17:59.401Z,96211.94
2022-11-29T01:20:26.607Z,96200.84
2022-11-29T01:22:53.516Z,96199.00
2022-11-29T01:25:20.779Z,96212.41
2022-11-29T01:27:47.469Z,96209.81
2022-11-29T01:30:14.541Z,96222.59
2022-11-29T01:32:42.073Z,96259.19
2022-11-29T01:35:09.215Z,96365.84
2022-11-29T01:37:36.104Z,96419.00
2022-11-29T01:40:02.815Z,96369.66
2022-11-29T01:42:29.482Z,96316.16
2022-11-29T01:45:14.738Z,96250.25
2022-11-29T01:47:45.334Z,96296.72
2022-11-29T01:50:12.335Z,96341.41
2022-11-29T01:52:39.405Z,96323.59
2022-11-29T01:55:08.108Z,96255.66
2022-11-29T01:57:36.760Z,96240.94
2022-11-29T02:00:15.423Z,96406.44
2022-11-29T02:02:58.917Z,96400.66
2022-11-29T02:05:25.868Z,96241.28
2022-11-29T02:07:55.102Z,96262.97
2022-11-29T02:10:48.510Z,96238.22
2022-11-29T02:13:38.005Z,96232.56
2022-11-29T02:16:14.966Z,96227.84
2022-11-29T02:18:59.633Z,96247.63
2022-11-29T02:21:41.297Z,96253.84
2022-11-29T02:24:20.062Z,96243.81
2022-11-29T02:26:49.419Z,96256.00
2022-11-29T02:29:29.823Z,96260.97
2022-11-29T02:32:30.580Z,96249.13
2022-11-29T02:35:19.859Z,96224.06
2022-11-29T02:38:15.645Z,96232.56
2022-11-29T02:41:00.899Z,96198.22
2022-11-29T02:43:36.502Z,96202.38
2022-11-29T02:46:21.410Z,96245.06
2022-11-29T02:48:58.088Z,96260.59
2022-11-29T02:51:47.009Z,96296.13
2022-11-29T02:54:35.560Z,96284.41
2022-11-29T02:57:14.645Z,96252.66
2022-11-29T02:59:57.553Z,96246.94
2022-11-29T03:02:42.676Z,96255.72
2022-11-29T03:05:47.288Z,96240.22
2022-11-29T03:08:23.734Z,96256.31
2022-11-29T03:10:55.811Z,96217.56
2022-11-29T03:13:33.371Z,96237.94
2022-11-29T03:16:42.811Z,96245.69
2022-11-29T03:19:39.007Z,96287.63
2022-11-29T03:22:24.423Z,96267.09
2022-11-29T03:24:56.968Z,96265.56
2022-11-29T03:27:35.071Z,96255.09
2022-11-29T03:30:06.558Z,96274.09
2022-11-29T03:32:59.218Z,96288.66
2022-11-29T03:35:35.290Z,96300.81
2022-11-29T03:38:24.184Z,96310.56
2022-11-29T03:41:19.005Z,96352.81
2022-11-29T03:43:57.864Z,96342.75
2022-11-29T03:46:40.558Z,96321.19
2022-11-29T03:49:22.799Z,96301.13
2022-11-29T03:52:07.919Z,96291.09
2022-11-29T03:54:56.817Z,96284.75
2022-11-29T03:57:49.719Z,96308.72
2022-11-29T04:00:17.973Z,96340.91
2022-11-29T04:02:53.646Z,96355.66
2022-11-29T04:05:54.304Z,96333.16
2022-11-29T04:08:50.486Z,96411.41
2022-11-29T04:11:26.095Z,96345.47
2022-11-29T04:14:24.966Z,96385.56
2022-11-29T04:16:51.860Z,96399.88
2022-11-29T04:19:37.601Z,96441.97
2022-11-29T04:22:17.265Z,96422.94
2022-11-29T04:25:05.833Z,96409.00
2022-11-29T04:28:12.117Z,96320.72
2022-11-29T04:30:58.812Z,96356.88
2022-11-29T04:33:43.327Z,96336.06
2022-11-29T04:36:44.970Z,96333.63
2022-11-29T04:39:43.057Z,96330.94
2022-11-29T04:42:27.656Z,96349.28
2022-11-29T04:44:57.086Z,96365.41
2022-11-29T04:48:22.139Z,96418.16
2022-11-29T04:51:06.933Z,96501.28
2022-11-29T04:53:50.930Z,96542.16
2022-11-29T04:56:33.170Z,96493.38
2022-11-29T04:59:13.608Z,96416.44
2022-11-29T05:01:53.198Z,96346.56
2022-11-29T05:04:31.946Z,96333.16
2022-11-29T05:06:58.908Z,96318.56
2022-11-29T05:09:44.260Z,96323.44
2022-11-29T05:12:10.893Z,96327.69
2022-11-29T05:17:56.659Z,96499.28
2022-11-29T05:20:36.434Z,96384.84
2022-11-29T05:23:30.125Z,96390.16
2022-11-29T05:26:29.240Z,96339.88
2022-11-29T05:29:03.113Z,96355.19
2022-11-29T05:31:51.890Z,96370.25
2022-11-29T05:34:42.945Z,96369.94
2022-11-29T05:37:28.100Z,96323.16
2022-11-29T05:40:13.321Z,96321.00
2022-11-29T05:43:17.095Z,96263.56
2022-11-29T05:45:50.655Z,96251.09
2022-11-29T05:48:31.677Z,96239.97
2022-11-29T05:51:29.379Z,96228.72
2022-11-29T05:54:19.940Z,96248.31
2022-11-29T05:57:14.666Z,96256.53
2022-11-29T05:59:43.195Z,96263.50
2022-11-29T06:02:40.904Z,96275.38
2022-11-29T06:05:28.788Z,96279.00
2022-11-29T06:08:10.705Z,96276.88
2022-11-29T06:10:41.737Z,96343.19
2022-11-29T06:13:33.015Z,96357.00
2022-11-29T06:16:29.884Z,96376.03
2022-11-29T06:19:16.379Z,96349.28
2022-11-29T06:22:00.159Z,96345.63
2022-11-29T06:24:53.077Z,96358.53
2022-11-29T06:27:44.088Z,96305.63
2022-11-29T06:30:15.350Z,96307.44
2022-11-29T06:33:24.332Z,96286.31
2022-11-29T06:36:14.107Z,96355.16
2022-11-29T06:38:41.814Z,96329.66
2022-11-29T06:41:14.730Z,96386.19
2022-11-29T06:43:41.708Z,96371.63
2022-11-29T06:46:34.903Z,96313.22
2022-11-29T06:49:32.671Z,96306.25
2022-11-29T06:52:17.481Z,96274.16
2022-11-29T06:54:49.986Z,96302.25
2022-11-29T06:57:35.121Z,96319.72
2022-11-29T07:00:20.253Z,96305.88
2022-11-29T07:03:11.807Z,96295.41
2022-11-29T07:05:39.442Z,96271.03
2022-11-29T07:08:25.474Z,96260.06
2022-11-29T07:10:55.606Z,96271.78
2022-11-29T07:13:23.218Z,96292.47
2022-11-29T07:16:17.101Z,96305.09
2022-11-29T07:18:48.039Z,96320.59
2022-11-29T07:21:47.624Z,96305.84
2022-11-29T07:24:26.552Z,96308.91
2022-11-29T07:27:07.190Z,96307.34
2022-11-29T07:29:44.985Z,96300.69
2022-11-29T07:32:59.860Z,96301.13
2022-11-29T07:35:45.983Z,96293.81
2022-11-29T07:38:18.576Z,96350.69
2022-11-29T07:40:56.445Z,96372.16
2022-11-29T07:43:45.657Z,96333.38
2022-11-29T07:46:12.600Z,96343.72
2022-11-29T07:48:39.375Z,96375.97
2022-11-29T07:51:06.457Z,96364.56
2022-11-29T07:53:38.464Z,96322.09
2022-11-29T07:56:05.380Z,96323.28
2022-11-29T07:58:32.155Z,96357.22
2022-11-29T08:00:59.062Z,96347.78
2022-11-29T08:03:25.802Z,96387.81
2022-11-29T08:05:52.525Z,96361.94
2022-11-29T08:08:19.255Z,96387.81
2022-11-29T08:10:46.313Z,96388.25
2022-11-29T08:13:13.693Z,96361.63
2022-11-29T08:15:45.584Z,96376.84
2022-11-29T08:18:12.977Z,96414.56
2022-11-29T08:20:41.942Z,96459.72
2022-11-29T08:23:12.447Z,96464.91
2022-11-29T08:25:39.442Z,96455.31
2022-11-29T08:28:06.773Z,96436.91
2022-11-29T08:30:33.629Z,96455.47
2022-11-29T08:33:00.399Z,96447.13
2022-11-29T08:35:27.232Z,96439.03
2022-11-29T08:37:54.725Z,96434.75
2022-11-29T08:40:21.969Z,96445.53
2022-11-29T08:42:48.695Z,96455.59
2022-11-29T08:45:15.584Z,96432.31
2022-11-29T08:47:43.078Z,96437.16
2022-11-29T08:50:15.717Z,96429.13
2022-11-29T08:53:03.402Z,96441.28
2022-11-29T08:55:39.752Z,96418.13
2022-11-29T08:58:11.774Z,96407.47
2022-11-29T09:00:39.428Z,96401.22
2022-11-29T09:03:26.123Z,96414.16
2022-11-29T09:05:53.489Z,96412.03
2022-11-29T09:08:20.376Z,96421.94
2022-11-29T09:10:47.624Z,96478.84
2022-11-29T09:13:14.897Z,96489.69
2022-11-29T09:15:43.587Z,96509.44
2022-11-29T09:18:10.967Z,96481.31
2022-11-29T09:20:37.738Z,96491.00
2022-11-29T09:23:04.987Z,96491.44
2022-11-29T09:25:31.840Z,96492.53
2022-11-29T09:28:01.427Z,96472.16
2022-11-29T09:30:31.445Z,96477.75
2022-11-29T09:33:04.029Z,96485.13
2022-11-29T09:35:31.335Z,96585.41
2022-11-29T09:37:58.150Z,96554.03
2022-11-29T09:40:45.873Z,96550.97
2022-11-29T09:43:30.919Z,96438.19
2022-11-29T09:46:06.234Z,96448.25
2022-11-29T09:48:40.659Z,96456.66
2022-11-29T09:51:30.431Z,96477.63
2022-11-29T09:54:15.033Z,96509.88
2022-11-29T09:56:45.366Z,96516.28
2022-11-29T09:59:18.668Z,96485.97
2022-11-29T10:01:51.569Z,96530.91
2022-11-29T10:04:28.911Z,96557.38
2022-11-29T10:07:08.871Z,96538.97
2022-11-29T10:09:47.742Z,96526.50
2022-11-29T10:12:21.754Z,96549.63
2022-11-29T10:14:57.233Z,96548.25
2022-11-29T10:17:32.854Z,96511.25
2022-11-29T10:20:21.060Z,96499.22
2022-11-29T10:22:56.947Z,96528.75
2022-11-29T10:25:34.744Z,96556.59
2022-11-29T10:28:01.973Z,96548.06
2022-11-29T10:30:29.277Z,96541.41
2022-11-29T10:33:00.436Z,96519.75
2022-11-29T10:35:27.805Z,96464.63
2022-11-29T10:38:29.006Z,96454.41
2022-11-29T10:40:48.849Z,96491.59
2022-11-29T10:43:15.674Z,96454.72
2022-11-29T10:45:53.580Z,96466.59
2022-11-29T10:48:23.048Z,96470.84
2022-11-29T10:50:51.573Z,96473.84
2022-11-29T10:53:22.628Z,96534.81
2022-11-29T10:56:01.390Z,96573.66
2022-11-29T10:58:30.488Z,96556.59
2022-11-29T11:01:07.997Z,96484.22
2022-11-29T11:03:39.798Z,96490.47
2022-11-29T11:06:09.373Z,96489.84
2022-11-29T11:08:37.392Z,96487.13
2022-11-29T11:11:06.092Z,96523.84
2022-11-29T11:13:34.009Z,96532.97
2022-11-29T11:16:20.602Z,96557.50
2022-11-29T11:18:48.439Z,96528.69
2022-11-29T11:21:18.109Z,96511.78
2022-11-29T11:24:02.892Z,96487.88
2022-11-29T11:26:43.092Z,96472.00
2022-11-29T11:29:18.225Z,96475.78
2022-11-29T11:31:53.472Z,96505.81
2022-11-29T11:34:27.925Z,96473.19
2022-11-29T11:37:17.621Z,96470.31
2022-11-29T11:39:46.797Z,96474.13
2022-11-29T11:42:37.156Z,96499.41
2022-11-29T11:45:50.013Z,96514.47
2022-11-29T11:48:17.745Z,96477.19
2022-11-29T11:50:52.288Z,96494.53
2022-11-29T11:53:23.894Z,96479.75
2022-11-29T11:55:58.142Z,96485.19
2022-11-29T11:58:29.162Z,96488.69
2022-11-29T12:01:05.051Z,96497.25
2022-11-29T12:03:50.811Z,96549.81
2022-11-29T12:06:45.352Z,96535.78
2022-11-29T12:09:38.385Z,96544.63
2022-11-29T12:12:26.870Z,96534.88
2022-11-29T12:14:59.367Z,96543.50
2022-11-29T12:17:34.418Z,96530.66
2022-11-29T12:20:28.572Z,96541.31
2022-11-29T12:23:34.931Z,96554.69
2022-11-29T12:26:06.429Z,96543.84
2022-11-29T12:28:35.751Z,96537.16
2022-11-29T12:31:40.102Z,96539.50
2022-11-29T12:34:27.088Z,96530.47
2022-11-29T12:36:57.407Z,96533.91
2022-11-29T12:39:47.593Z,96545.78
2022-11-29T12:42:36.069Z,96563.47
2022-11-29T12:45:11.411Z,96549.44
2022-11-29T12:47:53.013Z,96541.59
2022-11-29T12:50:30.114Z,96587.94
2022-11-29T12:53:18.494Z,96542.03
2022-11-29T12:55:56.088Z,96541.38
2022-11-29T12:58:25.449Z,96535.97
2022-11-29T13:01:21.506Z,96522.38
2022-11-29T13:04:21.327Z,96515.28
2022-11-29T13:07:04.685Z,96494.31
2022-11-29T13:10:18.198Z,96501.94
2022-11-29T13:12:55.436Z,96505.25
2022-11-29T13:15:28.307Z,96532.56
2022-11-29T13:18:06.138Z,96572.84
2022-11-29T13:20:39.719Z,96543.13
2022-11-29T13:26:37.837Z,96543.88
2022-11-29T13:29:06.418Z,96546.34
2022-11-29T13:31:36.034Z,96569.06
2022-11-29T13:34:24.878Z,96631.13
2022-11-29T13:37:15.267Z,96609.94
2022-11-29T13:39:55.599Z,96572.13
2022-11-29T13:42:45.443Z,96560.09
2022-11-29T13:45:52.485Z,96562.84
2022-11-29T13:48:45.859Z,96499.78
2022-11-29T13:51:34.249Z,96517.94
2022-11-29T13:54:04.577Z,96552.72
2022-11-29T13:56:46.022Z,96620.09
2022-11-29T13:59:28.048Z,96573.78
2022-11-29T14:01:55.116Z,96565.69
2022-11-29T14:04:24.772Z,96556.25
2022-11-29T14:07:02.887Z,96569.50
2022-11-29T14:09:36.083Z,96556.31
2022-11-29T14:12:41.804Z,96562.41
2022-11-29T14:15:11.228Z,96576.88
2022-11-29T14:17:57.915Z,96578.44
2022-11-29T14:20:28.655Z,96589.88
2022-11-29T14:23:04.562Z,96621.72
2022-11-29T14:25:52.756Z,96587.13
2022-11-29T14:28:22.552Z,96595.09
2022-11-29T14:30:57.479Z,96606.34
2022-11-29T14:33:35.241Z,96594.81
2022-11-29T14:36:17.667Z,96587.66
2022-11-29T14:39:05.611Z,96605.03
2022-11-29T14:42:01.323Z,96594.97
2022-11-29T14:44:33.339Z,96588.28
2022-11-29T14:47:13.866Z,96589.63
2022-11-29T14:49:45.172Z,96584.47
2022-11-29T14:52:14.874Z,96590.09
2022-11-29T14:55:16.723Z,96595.31
2022-11-29T14:58:01.444Z,96581.28
2022-11-29T15:00:42.132Z,96584.94
2022-11-29T15:03:33.223Z,96572.75
2022-11-29T15:06:10.165Z,96570.06
2022-11-29T15:09:06.018Z,96574.75
2022-11-29T15:11:35.780Z,96559.38
2022-11-29T15:14:36.656Z,96552.41
2022-11-29T15:17:44.739Z,96541.59
2022-11-29T15:20:48.772Z,96546.31
2022-11-29T15:23:18.643Z,96555.16
2022-11-29T15:25:54.197Z,96570.84
2022-11-29T15:28:26.814Z,96571.13
2022-11-29T15:31:06.428Z,96574.63
2022-11-29T15:33:36.333Z,96574.78
2022-11-29T15:36:06.551Z,96567.63
2022-11-29T15:38:46.256Z,96560.75
2022-11-29T15:41:27.085Z,96587.69
2022-11-29T15:44:00.288Z,96572.00
2022-11-29T15:46:29.818Z,96581.59
2022-11-29T15:49:16.408Z,96592.53
2022-11-29T15:51:44.983Z,96566.19
2022-11-29T15:54:18.628Z,96565.72
2022-11-29T15:56:52.475Z,96572.88
2022-11-29T15:59:25.352Z,96580.63
2022-11-29T16:01:54.024Z,96591.72
2022-11-29T16:04:22.133Z,96583.66
2022-11-29T16:06:50.286Z,96596.72
2022-11-29T16:09:22.873Z,96600.84
2022-11-29T16:11:49.661Z,96606.00
2022-11-29T16:14:22.370Z,96624.66
2022-11-29T16:16:52.730Z,96595.19
2022-11-29T16:19:30.975Z,96590.19
2022-11-29T16:22:12.975Z,96571.47
2022-11-29T16:24:48.333Z,96581.22
2022-11-29T16:27:15.262Z,96576.34
2022-11-29T16:29:45.290Z,96580.13
2022-11-29T16:32:36.667Z,96572.81
2022-11-29T16:35:21.878Z,96585.16
2022-11-29T16:37:49.150Z,96621.19
2022-11-29T16:40:28.179Z,96603.72
2022-11-29T16:43:24.165Z,96595.03
2022-11-29T16:46:30.347Z,96592.31
2022-11-29T16:48:59.315Z,96585.59
2022-11-29T16:51:43.860Z,96595.03
2022-11-29T16:54:33.987Z,96585.16
2022-11-29T16:57:05.323Z,96603.53
2022-11-29T16:59:32.812Z,96580.88
2022-11-29T17:01:59.532Z,96595.31
2022-11-29T17:04:26.754Z,96620.09
2022-11-29T17:06:56.760Z,96621.31
2022-11-29T17:09:34.317Z,96617.06
2022-11-29T17:12:02.522Z,96620.56
2022-11-29T17:14:29.703Z,96607.63
2022-11-29T17:16:56.508Z,96610.81
2022-11-29T17:19:24.270Z,96598.97
2022-11-29T17:21:52.915Z,96630.38
2022-11-29T17:24:21.809Z,96598.47
2022-11-29T17:26:49.198Z,96609.88
2022-11-29T17:29:16.821Z,96606.31
2022-11-29T17:31:47.021Z,96608.50
2022-11-29T17:34:13.851Z,96607.25
2022-11-29T17:36:40.733Z,96615.75
2022-11-29T17:39:08.045Z,96606.06
2022-11-29T17:41:34.983Z,96612.59
2022-11-29T17:44:02.602Z,96615.94
2022-11-29T17:46:31.864Z,96641.88
2022-11-29T17:49:00.497Z,96625.91
2022-11-29T17:54:14.273Z,96635.84
2022-11-29T17:56:41.046Z,96613.00
2022-11-29T17:59:07.782Z,96676.19
2022-11-29T18:01:36.324Z,96665.00
2022-11-29T18:04:05.500Z,96668.94
2022-11-29T18:06:38.608Z,96659.38
2022-11-29T18:09:07.682Z,96649.34
2022-11-29T18:11:46.422Z,96648.75
2022-11-29T18:14:20.987Z,96654.38
2022-11-29T18:16:47.948Z,96676.06
2022-11-29T18:19:17.281Z,96763.47
2022-11-29T18:21:44.517Z,96676.25
2022-11-29T18:24:11.570Z,96682.94
2022-11-29T18:26:39.177Z,96669.06
2022-11-29T18:29:07.427Z,96655.41
2022-11-29T18:31:36.399Z,96660.75
2022-11-29T18:34:09.886Z,96647.81
2022-11-29T18:36:44.100Z,96648.63
2022-11-29T18:39:14.266Z,96634.34
2022-11-29T18:41:43.363Z,96633.56
2022-11-29T18:44:12.849Z,96621.13
2022-11-29T18:46:41.735Z,96627.06
2022-11-29T18:49:10.866Z,96639.97
2022-11-29T18:51:39.017Z,96645.44
2022-11-29T18:54:06.800Z,96657.00
2022-11-29T18:56:36.970Z,96651.06
2022-11-29T18:59:09.733Z,96653.63
2022-11-29T19:01:41.112Z,96640.28
2022-11-29T19:04:13.925Z,96655.63
2022-11-29T19:06:41.579Z,96657.28
2022-11-29T19:09:15.414Z,96678.25
2022-11-29T19:11:42.057Z,96692.09
2022-11-29T19:14:11.811Z,96668.69
2022-11-29T19:16:41.600Z,96654.22
2022-11-29T19:19:08.440Z,96665.63
2022-11-29T19:21:35.260Z,96657.41
2022-11-29T19:24:05.560Z,96661.97
2022-11-29T19:26:33.006Z,96673.38
2022-11-29T19:29:01.225Z,96668.81
2022-11-29T19:31:28.857Z,96671.25
2022-11-29T19:33:56.455Z,96683.09
2022-11-29T19:36:26.190Z,96679.25
2022-11-29T19:38:54.430Z,96695.16
2022-11-29T19:41:26.654Z,96700.63
2022-11-29T19:43:55.877Z,96680.44
2022-11-29T19:46:31.265Z,96687.59
2022-11-29T19:48:59.302Z,96692.09
2022-11-29T19:51:27.586Z,96695.00
2022-11-29T19:53:56.080Z,96688.47
2022-11-29T19:56:23.637Z,96691.63
2022-11-29T19:58:51.136Z,96691.03
2022-11-29T20:01:35.946Z,96690.28
2022-11-29T20:04:06.836Z,96690.28
2022-11-29T20:06:33.708Z,96692.09
2022-11-29T20:09:00.544Z,96709.44
2022-11-29T20:11:27.361Z,96703.50
2022-11-29T20:13:57.813Z,96714.59
2022-11-29T20:16:25.384Z,96717.34
2022-11-29T20:18:53.112Z,96706.25
2022-11-29T20:21:25.360Z,96708.34
2022-11-29T20:24:03.486Z,96709.69
2022-11-29T20:26:32.851Z,96703.41
2022-11-29T20:29:00.278Z,96710.19
2022-11-29T20:31:27.895Z,96722.34
2022-11-29T20:33:57.563Z,96736.00
2022-11-29T20:37:07.372Z,96715.53
2022-11-29T20:39:55.275Z,96713.53
2022-11-29T20:43:11.796Z,96712.66
2022-11-29T20:45:38.787Z,96716.75
2022-11-29T20:48:18.405Z,96715.72
2022-11-29T20:50:52.973Z,96722.13
2022-11-29T20:53:40.503Z,96703.56
2022-11-29T20:56:08.298Z,96712.09
2022-11-29T20:58:35.390Z,96705.56
2022-11-29T21:01:02.553Z,96712.97
2022-11-29T21:03:30.242Z,96706.78
2022-11-29T21:06:01.036Z,96712.56
2022-11-29T21:08:27.971Z,96723.94
2022-11-29T21:11:00.814Z,96752.81
2022-11-29T21:13:27.805Z,96700.41
2022-11-29T21:15:54.855Z,96706.34
2022-11-29T21:18:26.750Z,96699.66
2022-11-29T21:21:22.649Z,96709.66
2022-11-29T21:24:04.700Z,96732.16
2022-11-29T21:26:42.494Z,96767.56
2022-11-29T21:29:09.336Z,96726.81
2022-11-29T21:31:36.623Z,96721.06
2022-11-29T21:34:04.123Z,96710.25
2022-11-29T21:36:31.009Z,96704.81
2022-11-29T21:39:00.955Z,96714.09
2022-11-29T21:41:31.766Z,96714.53
2022-11-29T21:44:06.821Z,96715.56
2022-11-29T21:46:34.679Z,96710.41
2022-11-29T21:49:01.500Z,96716.66
2022-11-29T21:51:28.154Z,96715.91
2022-11-29T21:53:54.795Z,96714.81
2022-11-29T21:56:21.555Z,96706.19
2022-11-29T21:58:48.264Z,96700.41
2022-11-29T22:01:18.129Z,96708.16
2022-11-29T22:03:45.722Z,96721.34
2022-11-29T22:06:20.456Z,96719.84
2022-11-29T22:08:48.578Z,96728.81
2022-11-29T22:11:34.467Z,96728.34
2022-11-29T22:14:14.663Z,96733.03
2022-11-29T22:16:53.621Z,96724.72
2022-11-29T22:19:32.067Z,96727.16
2022-11-29T22:22:03.027Z,96728.97
2022-11-29T22:24:32.238Z,96742.94
2022-11-29T22:26:59.216Z,96731.84
2022-11-29T22:29:26.050Z,96739.28
2022-11-29T22:31:54.724Z,96735.97
2022-11-29T22:34:22.957Z,96733.97
2022-11-29T22:36:49.690Z,96749.00
2022-11-29T22:39:16.497Z,96748.25
2022-11-29T22:41:43.549Z,96742.00
2022-11-29T22:44:10.423Z,96733.50
2022-11-29T22:46:39.400Z,96741.25
2022-11-29T22:49:06.232Z,96741.56
2022-11-29T22:51:35.686Z,96732.75
2022-11-29T22:54:05.415Z,96740.00
2022-11-29T22:56:34.536Z,96736.97
2022-11-29T22:59:01.579Z,96738.50
2022-11-29T23:01:30.334Z,96738.50
2022-11-29T23:03:59.140Z,96740.00
2022-11-29T23:06:34.480Z,96750.34
2022-11-29T23:09:10.662Z,96740.78
2022-11-29T23:11:38.303Z,96747.66
2022-11-29T23:14:05.007Z,96760.66
2022-11-29T23:16:32.977Z,96760.41
2022-11-29T23:19:00.590Z,96767.38
2022-11-29T23:21:36.611Z,96767.97
2022-11-29T23:24:03.954Z,96768.16
2022-11-29T23:26:42.701Z,96774.94
2022-11-29T23:29:13.638Z,96775.22
2022-11-29T23:31:40.956Z,96769.19
2022-11-29T23:34:08.588Z,96758.09
2022-11-29T23:36:35.548Z,96762.31
2022-11-29T23:39:04.348Z,96764.41
2022-11-29T23:41:31.085Z,96770.34
2022-11-29T23:43:59.719Z,96775.81
2022-11-29T23:46:26.513Z,96757.63
2022-11-29T23:48:53.367Z,96752.16
2022-11-29T23:51:20.322Z,96755.59
2022-11-29T23:53:51.401Z,96770.06
2022-11-29T23:56:18.423Z,96754.09
2022-11-29T23:58:45.541Z,96790.91
